CheckWX is a tool to help pilots better visualize weather data.  It is not intended as a substitute for an official pre-flight weather briefing.

05:37:28 UTC

GVSV TAF
São Pedro Airport
São Pedro, Cape Verde
TAF GVSV 172300Z 1800/1906 06010KT 9999 SCT022 PROB30 TEMPO 1802/1806 VRB03KT

Aug-18@
00:00 UTC

Aug-18 @ 00:00 UTC

Aug-19@
06:00 UTC

Aug-19 @ 06:00 UTC

TAF GVSV 172300Z 1800/1906 06010KT 9999 SCT022
Wind
  • 060° at 10 KTS
Cloud Levels
  • Scattered at 2,200' AGL

Aug-18@
02:00 UTC

Aug-18 @ 02:00 UTC

Aug-18@
06:00 UTC

Aug-18 @ 06:00 UTC

PROB30 TEMPO 1802/1806 VRB03KT

Temporary - 30% Likelihood

Temporary - 30% Likelihood during this time.

Wind
  • Variable at 3 KTS